ΕΜΥ, Εθνική Μετεωρολογική Υπηρεσία - Δελτία Καιρού, Προγνώσεις

ΑΕΡΟΝΑΥΤΙΛΙΑ

GREEK AIRPORTS CODES

LGKP 230330Z AUTO 33014KT //// -RA ////// 06/00 Q1014 RE//=

EUROPEAN AIRPORTS CODES

LFPO 230330Z 06006KT 9000 OVC011 04/02 Q1035 NOSIG=